Spirit Of Montoir — IBLU — position and weather

sailwx.info

Track history (hours):
 
Tides and Currents Weather Stations Pressure Air Temp Water Temp Dewpoint Dewpoint Depression Visibility Wind Speed Wind Dir Waves Ship Positions

Spirit Of Montoir

Last reported at 2017-Dec-14 18:30 UTC. Time now 2017-Dec-16 22:45 UTC.
Position N 38°57' W 009°46'.

Length 180 m; draft 6.5 m.

Type: Ship. MMSI: 247371500.

Date/timePositionNaut miles runAvg speedWind from/ knotsBaromVisibWave heightAir tempDewpointWater temp
2017-Dec-14 18:30N 38°57' W 009°46'713.9
2017-Dec-14 18:00N 38°51' W 009°50'714.5
2017-Dec-14 17:31N 38°44' W 009°49'714.4
2017-Dec-14 17:00N 38°37' W 009°46'816.0
2017-Dec-14 16:30N 38°31' W 009°38'816.3
2017-Dec-14 16:01N 38°26' W 009°30'1716.8
2017-Dec-14 15:01N 38°17' W 009°12'4 8.9
2017-Dec-14 14:30N 38°14' W 009°08'1 1.3
2017-Dec-14 14:00N 38°15' W 009°08'2 4.8
2017-Dec-14 13:30N 38°17' W 009°10'2 4.2
2017-Dec-14 13:00N 38°15' W 009°09'2 4.7
2017-Dec-14 12:30N 38°13' W 009°06'2 4.8
2017-Dec-14 12:00N 38°12' W 009°04'2 4.9
2017-Dec-14 11:30N 38°10' W 009°02'1 2.1
2017-Dec-14 11:00N 38°10' W 009°03'2 3.8
2017-Dec-14 10:30N 38°12' W 009°03'3 5.2
2017-Dec-14 10:00N 38°14' W 009°01'3 5.3
2017-Dec-14 09:30N 38°16' W 008°59'3 5.2
2017-Dec-14 09:00N 38°19' W 008°58'2 4.2
2017-Dec-14 08:30N 38°20' W 008°56'2 4.3
2017-Dec-14 08:00N 38°18' W 008°55'3 5.3
2017-Dec-14 07:30N 38°16' W 008°56'2 3.7
2017-Dec-14 07:00N 38°17' W 008°55'2 3.8
2017-Dec-14 06:30N 38°19' W 008°56'2 4.7
2017-Dec-14 06:00N 38°17' W 008°55'0 0.4
2017-Dec-14 05:30N 38°17' W 008°55'2 4.6
2017-Dec-14 05:00N 38°19' W 008°55'2 3.7
2017-Dec-14 04:30N 38°17' W 008°55'0 0.5
2017-Dec-14 04:00N 38°17' W 008°56'2 4.7
2017-Dec-14 03:30N 38°20' W 008°56'2 4.0
2017-Dec-14 03:00N 38°18' W 008°56'3 6.5
2017-Dec-14 02:30N 38°15' W 008°56'3 5.4
2017-Dec-14 02:00N 38°14' W 008°60'3 5.3
2017-Dec-14 01:30N 38°15' W 009°02'3 6.3
2017-Dec-14 01:00N 38°18' W 009°03'2 4.6
2017-Dec-14 00:30N 38°21' W 009°02'3 6.2
2017-Dec-14 00:00N 38°21' W 008°58'2 4.9
2017-Dec-13 23:30N 38°19' W 008°55'3 6.6
2017-Dec-13 23:00N 38°16' W 008°56'3 6.6
2017-Dec-13 22:30N 38°13' W 008°57'3 5.4
2017-Dec-13 22:00N 38°14' W 009°01'3 6.6
2017-Dec-13 21:30N 38°17' W 009°03'3 6.1
2017-Dec-13 21:00N 38°20' W 009°03'3 5.9
2017-Dec-13 20:30N 38°20' W 008°59'2 4.5
2017-Dec-13 20:00N 38°19' W 008°57'3 5.8
2017-Dec-13 19:30N 38°16' W 008°56'3 6.6
2017-Dec-13 19:00N 38°13' W 008°57'3 5.9
2017-Dec-13 18:30N 38°12' W 009°00'3 6.7
2017-Dec-13 18:00N 38°15' W 009°02'2 4.0
2017-Dec-13 17:30N 38°17' W 009°02'2 4.0
2017-Dec-13 17:00N 38°17' W 008°60'2 3.0
2017-Dec-13 16:30N 38°17' W 008°58'3 6.8
2017-Dec-13 16:00N 38°18' W 009°02'1 2.9
2017-Dec-13 15:30N 38°17' W 009°01'3 5.9
2017-Dec-13 15:00N 38°15' W 008°58'3 6.1
2017-Dec-13 14:30N 38°18' W 008°56'4 7.7
2017-Dec-13 14:00N 38°21' W 008°59'5 9.4
2017-Dec-13 13:31N 38°24' W 009°03'714.6
2017-Dec-13 13:00N 38°17' W 009°06'612.1
2017-Dec-13 12:31N 38°14' W 008°59'510.4
2017-Dec-13 12:00N 38°19' W 008°57'3 6.4
2017-Dec-13 11:30N 38°16' W 008°55'3 6.0
2017-Dec-13 11:00N 38°13' W 008°57'3 6.4
2017-Dec-13 10:30N 38°14' W 009°01'3 6.2
2017-Dec-13 10:00N 38°16' W 009°03'3 6.1
2017-Dec-13 09:30N 38°19' W 009°03'2 4.9
2017-Dec-13 09:00N 38°22' W 009°02'3 6.2
2017-Dec-13 08:30N 38°18' W 009°02'3 5.8
2017-Dec-13 08:00N 38°16' W 009°03'2 4.3
2017-Dec-13 07:30N 38°17' W 009°05'2 4.2
2017-Dec-13 07:00N 38°19' W 009°04'3 5.3
2017-Dec-13 06:30N 38°20' W 009°00'3 6.1
2017-Dec-13 06:00N 38°18' W 008°57'2 3.9
2017-Dec-13 05:30N 38°20' W 008°59'2 4.7
2017-Dec-13 05:00N 38°20' W 009°02'3 6.2
2017-Dec-13 04:30N 38°17' W 009°00'2 3.9
2017-Dec-13 04:00N 38°18' W 008°58'3 5.8
2017-Dec-13 03:30N 38°20' W 008°60'3 6.4
2017-Dec-13 03:00N 38°19' W 009°03'3 5.5
2017-Dec-13 02:30N 38°16' W 009°01'4 7.1
2017-Dec-13 02:00N 38°14' W 008°58'3 5.6
2017-Dec-13 01:30N 38°16' W 008°55'4 7.5
2017-Dec-13 01:00N 38°20' W 008°54'4 7.1
2017-Dec-13 00:30N 38°23' W 008°56'3 6.6
2017-Dec-13 00:00N 38°23' W 009°00'3 7.0
2017-Dec-12 23:30N 38°20' W 009°03'3 6.7
2017-Dec-12 23:00N 38°17' W 009°05'3 6.1
2017-Dec-12 22:30N 38°14' W 009°04'2 4.9
2017-Dec-12 22:00N 38°13' W 009°01'3 5.7
2017-Dec-12 21:30N 38°15' W 008°60'3 6.4
2017-Dec-12 21:00N 38°19' W 009°00'3 6.0
2017-Dec-12 20:30N 38°19' W 009°04'2 5.0
2017-Dec-12 20:00N 38°16' W 009°06'3 5.1
2017-Dec-12 19:30N 38°14' W 009°05'1 2.9
2017-Dec-12 19:00N 38°13' W 009°04'2 4.0
2017-Dec-12 18:30N 38°14' W 009°02'3 5.4
2017-Dec-12 18:00N 38°16' W 009°04'3 6.0
2017-Dec-12 17:30N 38°19' W 009°06'2 4.7
2017-Dec-12 17:00N 38°18' W 009°08'2 4.8
2017-Dec-12 16:30N 38°15' W 009°08'2 4.5
2017-Dec-12 16:00N 38°14' W 009°05'2 3.1
2017-Dec-12 15:30N 38°16' W 009°05'3 6.5
2017-Dec-12 15:00N 38°18' W 009°08'612.7
2017-Dec-12 14:30N 38°21' W 009°15'611.4
2017-Dec-12 14:00N 38°23' W 009°22'611.6
2017-Dec-12 13:30N 38°23' W 009°30'4 7.4
2017-Dec-12 13:00N 38°19' W 009°31'510.9
2017-Dec-12 12:30N 38°14' W 009°29'611.7
2017-Dec-12 12:00N 38°09' W 009°27'612.1
2017-Dec-12 11:30N 38°03' W 009°26'611.3
2017-Dec-12 11:00N 37°57' W 009°26'611.1
2017-Dec-12 10:30N 37°51' W 009°26'611.0
2017-Dec-12 10:00N 37°46' W 009°26'510.7
2017-Dec-12 09:30N 37°41' W 009°25'710.6
2017-Dec-12 08:53N 37°34' W 009°25'410.4
2017-Dec-12 08:30N 37°30' W 009°25'54 8.8
2017-Dec-12 02:24N 36°42' W 008°54'4 9.7
2017-Dec-12 02:00N 36°40' W 008°50'811.4
2017-Dec-12 01:20N 36°39' W 008°41'611.1
2017-Dec-12 00:50N 36°36' W 008°34'10314.6
2017-Dec-11 17:46N 36°03' W 006°33'416.7
2017-Dec-11 17:30N 36°02' W 006°28'816.4
2017-Dec-11 17:00N 36°00' W 006°18'815.8
2017-Dec-11 16:31N 35°58' W 006°09'816.1
2017-Dec-11 16:01N 35°57' W 005°59'816.3
2017-Dec-11 15:30N 35°58' W 005°49'  
2017-Dec-07 21:51N 40°50' E 014°17'1 3.1
2017-Dec-07 21:30N 40°49' E 014°17'510.6
2017-Dec-07 21:00N 40°44' E 014°14'713.5
2017-Dec-07 20:30N 40°39' E 014°10'713.4
2017-Dec-07 20:00N 40°33' E 014°05'13013.3
2017-Dec-07 10:17N 38°40' E 012°42'712.9
2017-Dec-07 09:47N 38°35' E 012°37'1212.7
2017-Dec-07 08:50N 38°25' E 012°29'  
Track history (hours):
 
Tides and Currents Weather Stations Pressure Air Temp Water Temp Dewpoint Dewpoint Depression Visibility Wind Speed Wind Dir Waves Ship Positions

Spirit Of Montoir

Last reported at 2017-Dec-14 18:30 UTC. Time now 2017-Dec-16 22:45 UTC.
Position N 38°57' W 009°46'.

Length 180 m; draft 6.5 m.

Type: Ship. MMSI: 247371500.

Date/timePositionNaut miles runAvg speedWind from/ knotsBaromVisibWave heightAir tempDewpointWater temp
2017-Dec-14 18:30N 38°57' W 009°46'713.9
2017-Dec-14 18:00N 38°51' W 009°50'714.5
2017-Dec-14 17:31N 38°44' W 009°49'714.4
2017-Dec-14 17:00N 38°37' W 009°46'816.0
2017-Dec-14 16:30N 38°31' W 009°38'816.3
2017-Dec-14 16:01N 38°26' W 009°30'1716.8
2017-Dec-14 15:01N 38°17' W 009°12'4 8.9
2017-Dec-14 14:30N 38°14' W 009°08'1 1.3
2017-Dec-14 14:00N 38°15' W 009°08'2 4.8
2017-Dec-14 13:30N 38°17' W 009°10'2 4.2
2017-Dec-14 13:00N 38°15' W 009°09'2 4.7
2017-Dec-14 12:30N 38°13' W 009°06'2 4.8
2017-Dec-14 12:00N 38°12' W 009°04'2 4.9
2017-Dec-14 11:30N 38°10' W 009°02'1 2.1
2017-Dec-14 11:00N 38°10' W 009°03'2 3.8
2017-Dec-14 10:30N 38°12' W 009°03'3 5.2
2017-Dec-14 10:00N 38°14' W 009°01'3 5.3
2017-Dec-14 09:30N 38°16' W 008°59'3 5.2
2017-Dec-14 09:00N 38°19' W 008°58'2 4.2
2017-Dec-14 08:30N 38°20' W 008°56'2 4.3
2017-Dec-14 08:00N 38°18' W 008°55'3 5.3
2017-Dec-14 07:30N 38°16' W 008°56'2 3.7
2017-Dec-14 07:00N 38°17' W 008°55'2 3.8
2017-Dec-14 06:30N 38°19' W 008°56'2 4.7
2017-Dec-14 06:00N 38°17' W 008°55'0 0.4
2017-Dec-14 05:30N 38°17' W 008°55'2 4.6
2017-Dec-14 05:00N 38°19' W 008°55'2 3.7
2017-Dec-14 04:30N 38°17' W 008°55'0 0.5
2017-Dec-14 04:00N 38°17' W 008°56'2 4.7
2017-Dec-14 03:30N 38°20' W 008°56'2 4.0
2017-Dec-14 03:00N 38°18' W 008°56'3 6.5
2017-Dec-14 02:30N 38°15' W 008°56'3 5.4
2017-Dec-14 02:00N 38°14' W 008°60'3 5.3
2017-Dec-14 01:30N 38°15' W 009°02'3 6.3
2017-Dec-14 01:00N 38°18' W 009°03'2 4.6
2017-Dec-14 00:30N 38°21' W 009°02'3 6.2
2017-Dec-14 00:00N 38°21' W 008°58'2 4.9
2017-Dec-13 23:30N 38°19' W 008°55'3 6.6
2017-Dec-13 23:00N 38°16' W 008°56'3 6.6
2017-Dec-13 22:30N 38°13' W 008°57'3 5.4
2017-Dec-13 22:00N 38°14' W 009°01'3 6.6
2017-Dec-13 21:30N 38°17' W 009°03'3 6.1
2017-Dec-13 21:00N 38°20' W 009°03'3 5.9
2017-Dec-13 20:30N 38°20' W 008°59'2 4.5
2017-Dec-13 20:00N 38°19' W 008°57'3 5.8
2017-Dec-13 19:30N 38°16' W 008°56'3 6.6
2017-Dec-13 19:00N 38°13' W 008°57'3 5.9
2017-Dec-13 18:30N 38°12' W 009°00'3 6.7
2017-Dec-13 18:00N 38°15' W 009°02'2 4.0
2017-Dec-13 17:30N 38°17' W 009°02'2 4.0
2017-Dec-13 17:00N 38°17' W 008°60'2 3.0
2017-Dec-13 16:30N 38°17' W 008°58'3 6.8
2017-Dec-13 16:00N 38°18' W 009°02'1 2.9
2017-Dec-13 15:30N 38°17' W 009°01'3 5.9
2017-Dec-13 15:00N 38°15' W 008°58'3 6.1
2017-Dec-13 14:30N 38°18' W 008°56'4 7.7
2017-Dec-13 14:00N 38°21' W 008°59'5 9.4
2017-Dec-13 13:31N 38°24' W 009°03'714.6
2017-Dec-13 13:00N 38°17' W 009°06'612.1
2017-Dec-13 12:31N 38°14' W 008°59'510.4
2017-Dec-13 12:00N 38°19' W 008°57'3 6.4
2017-Dec-13 11:30N 38°16' W 008°55'3 6.0
2017-Dec-13 11:00N 38°13' W 008°57'3 6.4
2017-Dec-13 10:30N 38°14' W 009°01'3 6.2
2017-Dec-13 10:00N 38°16' W 009°03'3 6.1
2017-Dec-13 09:30N 38°19' W 009°03'2 4.9
2017-Dec-13 09:00N 38°22' W 009°02'3 6.2
2017-Dec-13 08:30N 38°18' W 009°02'3 5.8
2017-Dec-13 08:00N 38°16' W 009°03'2 4.3
2017-Dec-13 07:30N 38°17' W 009°05'2 4.2
2017-Dec-13 07:00N 38°19' W 009°04'3 5.3
2017-Dec-13 06:30N 38°20' W 009°00'3 6.1
2017-Dec-13 06:00N 38°18' W 008°57'2 3.9
2017-Dec-13 05:30N 38°20' W 008°59'2 4.7
2017-Dec-13 05:00N 38°20' W 009°02'3 6.2
2017-Dec-13 04:30N 38°17' W 009°00'2 3.9
2017-Dec-13 04:00N 38°18' W 008°58'3 5.8
2017-Dec-13 03:30N 38°20' W 008°60'3 6.4
2017-Dec-13 03:00N 38°19' W 009°03'3 5.5
2017-Dec-13 02:30N 38°16' W 009°01'4 7.1
2017-Dec-13 02:00N 38°14' W 008°58'3 5.6
2017-Dec-13 01:30N 38°16' W 008°55'4 7.5
2017-Dec-13 01:00N 38°20' W 008°54'4 7.1
2017-Dec-13 00:30N 38°23' W 008°56'3 6.6
2017-Dec-13 00:00N 38°23' W 009°00'3 7.0
2017-Dec-12 23:30N 38°20' W 009°03'3 6.7
2017-Dec-12 23:00N 38°17' W 009°05'3 6.1
2017-Dec-12 22:30N 38°14' W 009°04'2 4.9
2017-Dec-12 22:00N 38°13' W 009°01'3 5.7
2017-Dec-12 21:30N 38°15' W 008°60'3 6.4
2017-Dec-12 21:00N 38°19' W 009°00'3 6.0
2017-Dec-12 20:30N 38°19' W 009°04'2 5.0
2017-Dec-12 20:00N 38°16' W 009°06'3 5.1
2017-Dec-12 19:30N 38°14' W 009°05'1 2.9
2017-Dec-12 19:00N 38°13' W 009°04'2 4.0
2017-Dec-12 18:30N 38°14' W 009°02'3 5.4
2017-Dec-12 18:00N 38°16' W 009°04'3 6.0
2017-Dec-12 17:30N 38°19' W 009°06'2 4.7
2017-Dec-12 17:00N 38°18' W 009°08'2 4.8
2017-Dec-12 16:30N 38°15' W 009°08'2 4.5
2017-Dec-12 16:00N 38°14' W 009°05'2 3.1
2017-Dec-12 15:30N 38°16' W 009°05'3 6.5
2017-Dec-12 15:00N 38°18' W 009°08'612.7
2017-Dec-12 14:30N 38°21' W 009°15'611.4
2017-Dec-12 14:00N 38°23' W 009°22'611.6
2017-Dec-12 13:30N 38°23' W 009°30'4 7.4
2017-Dec-12 13:00N 38°19' W 009°31'510.9
2017-Dec-12 12:30N 38°14' W 009°29'611.7
2017-Dec-12 12:00N 38°09' W 009°27'612.1
2017-Dec-12 11:30N 38°03' W 009°26'611.3
2017-Dec-12 11:00N 37°57' W 009°26'611.1
2017-Dec-12 10:30N 37°51' W 009°26'611.0
2017-Dec-12 10:00N 37°46' W 009°26'510.7
2017-Dec-12 09:30N 37°41' W 009°25'710.6
2017-Dec-12 08:53N 37°34' W 009°25'410.4
2017-Dec-12 08:30N 37°30' W 009°25'54 8.8
2017-Dec-12 02:24N 36°42' W 008°54'4 9.7
2017-Dec-12 02:00N 36°40' W 008°50'811.4
2017-Dec-12 01:20N 36°39' W 008°41'611.1
2017-Dec-12 00:50N 36°36' W 008°34'10314.6
2017-Dec-11 17:46N 36°03' W 006°33'416.7
2017-Dec-11 17:30N 36°02' W 006°28'816.4
2017-Dec-11 17:00N 36°00' W 006°18'815.8
2017-Dec-11 16:31N 35°58' W 006°09'816.1
2017-Dec-11 16:01N 35°57' W 005°59'816.3
2017-Dec-11 15:30N 35°58' W 005°49'  
2017-Dec-07 21:51N 40°50' E 014°17'1 3.1
2017-Dec-07 21:30N 40°49' E 014°17'510.6
2017-Dec-07 21:00N 40°44' E 014°14'713.5
2017-Dec-07 20:30N 40°39' E 014°10'713.4
2017-Dec-07 20:00N 40°33' E 014°05'13013.3
2017-Dec-07 10:17N 38°40' E 012°42'712.9
2017-Dec-07 09:47N 38°35' E 012°37'1212.7
2017-Dec-07 08:50N 38°25' E 012°29'  

Dump ship's entire track history